Bruce Crossing, MI (49912)

5:34 PM EDT on July 24, 2016 (GMT -0400)
Ewen MI | | Change Station

Elev 1181 ft 46.52 °N, 89.27 °W | Updated 9 minutes ago

Mostly Cloudy
Mostly Cloudy
84.9 °F
Feels Like 90 °F
N
8.3
Wind Variable Wind from West

Today
High -- | Low -- °F
--% Chance of Precip.
Yesterday
High -- | Low -- °F
Precip. -- in
Pressure 29.84 in
Visibility 10.0 miles
Clouds Scattered Clouds 4600 ft
Mostly Cloudy 6000 ft
Heat Index 90 °F
Dew Point 70 °F
Humidity 62%
Rainfall 0.09 in
Snow Depth Not available.
6:28 AM 9:37 PM
Waning Gibbous, 73% visible
METAR KLNL 242115Z AUTO 29005KT 10SM SCT046 BKN060 26/16 A2984 RMK AO2 T02630162
Pressure 29.84 in
Visibility 10.0 miles
Clouds Scattered Clouds 4600 ft
Mostly Cloudy 6000 ft
Heat Index 90 °F
Dew Point 70 °F
Humidity 62%
Rainfall 0.09 in
Snow Depth Not available.
6:28 AM 9:37 PM
Waning Gibbous, 73% visible
METAR KLNL 242115Z AUTO 29005KT 10SM SCT046 BKN060 26/16 A2984 RMK AO2 T02630162

10-Day Weather Forecast

Almanac

Astronomy

Jul. 24, 2016 Rise Set
Actual Time
Civil Twilight
Nautical Twilight
Astronomical Twilight
Moon
Length of Visible Light
Length of Day
Tomorrow will be .
, % of the Moon is Illuminated

Today's Extremes

State Highs State Lows

Community

WunderPhotos

Upload Photos

1,927,193 photos uploaded!

WunderBlog® & News

Nearby

Air Quality

  Air Quality AQ Index Pollutant
Not available.

Snow Depth

Station Depth Elevation

Earthquake Activity

City Distance Mag. Time & Date
Minimum magnitude displayed is 2.5.

Coastal Water Temperatures

Place Temperature

Stations

Nearby Weather Stations

Station Location Temp. Windchill Dew Point Humidity Wind Precip. Elev Updated Type
                   

Watches & Warnings

There are currently no watches in effect.